createdAt,value
2023-05-10T00:00:36.569Z,196.76
2023-05-10T00:01:36.694Z,198.02
2023-05-10T00:02:36.806Z,199.46
2023-05-10T00:03:36.792Z,200.55
2023-05-10T00:04:36.693Z,201.02
2023-05-10T00:05:36.737Z,201.71
2023-05-10T00:06:36.792Z,200.94
2023-05-10T00:07:36.822Z,200.74
2023-05-10T00:08:36.851Z,201.50
2023-05-10T00:09:36.867Z,200.15
2023-05-10T00:10:36.922Z,200.55
2023-05-10T00:11:36.968Z,199.20
2023-05-10T00:12:36.955Z,200.52
2023-05-10T00:13:37.750Z,200.92
2023-05-10T00:14:37.149Z,201.80
2023-05-10T00:15:37.097Z,200.93
2023-05-10T00:16:37.134Z,201.53
2023-05-10T00:17:37.160Z,201.47
2023-05-10T00:18:37.202Z,204.28
2023-05-10T00:19:37.210Z,205.58
2023-05-10T00:20:37.254Z,206.52
2023-05-10T00:21:37.298Z,209.14
2023-05-10T00:22:37.326Z,208.15
2023-05-10T00:23:37.374Z,207.27
2023-05-10T00:24:37.413Z,207.69
2023-05-10T00:25:37.458Z,207.98
2023-05-10T00:26:37.461Z,207.74
2023-05-10T00:27:37.528Z,207.45
2023-05-10T00:28:37.547Z,206.44
2023-05-10T00:29:37.592Z,207.54
2023-05-10T00:30:37.594Z,208.13
2023-05-10T00:31:37.709Z,208.00
2023-05-10T00:32:37.718Z,207.65
2023-05-10T00:33:37.611Z,208.19
2023-05-10T00:34:37.623Z,208.19
2023-05-10T00:35:37.677Z,209.10
2023-05-10T00:36:37.682Z,208.77
2023-05-10T00:37:37.733Z,208.71
2023-05-10T00:38:37.767Z,209.55
2023-05-10T00:39:37.785Z,208.67
2023-05-10T00:40:37.849Z,209.60
2023-05-10T00:41:37.897Z,211.33
2023-05-10T00:42:37.914Z,210.33
2023-05-10T00:43:37.972Z,210.93
2023-05-10T00:44:37.983Z,211.99
2023-05-10T00:45:37.998Z,210.86
2023-05-10T00:46:38.077Z,210.88
2023-05-10T00:47:38.121Z,210.88
2023-05-10T00:48:38.087Z,211.04
2023-05-10T00:49:38.163Z,210.72
2023-05-10T00:50:38.147Z,211.86
2023-05-10T00:51:38.168Z,210.45
2023-05-10T00:52:38.219Z,210.76
2023-05-10T00:53:38.230Z,210.50
2023-05-10T00:54:38.309Z,211.76
2023-05-10T00:55:38.340Z,209.90
2023-05-10T00:56:38.364Z,211.17
2023-05-10T00:57:38.401Z,212.13
2023-05-10T00:58:38.414Z,213.04
2023-05-10T00:59:38.475Z,213.04
2023-05-10T01:00:38.481Z,214.66
2023-05-10T01:01:38.559Z,213.74
2023-05-10T01:02:38.669Z,212.93
2023-05-10T01:03:38.628Z,212.60
2023-05-10T01:04:38.649Z,213.17
2023-05-10T01:05:38.664Z,212.73
2023-05-10T01:06:38.676Z,212.21
2023-05-10T01:07:38.774Z,211.96
2023-05-10T01:08:38.787Z,212.51
2023-05-10T01:09:38.849Z,212.24
2023-05-10T01:10:38.828Z,212.47
2023-05-10T01:11:38.822Z,212.95
2023-05-10T01:12:38.906Z,212.89
2023-05-10T01:13:38.886Z,213.03
2023-05-10T01:14:38.929Z,212.74
2023-05-10T01:15:38.980Z,212.05
2023-05-10T01:16:38.993Z,212.30
2023-05-10T01:17:39.038Z,213.34
2023-05-10T01:18:39.069Z,214.27
2023-05-10T01:19:39.097Z,213.24
2023-05-10T01:20:39.154Z,213.44
2023-05-10T01:21:39.134Z,215.49
2023-05-10T01:22:39.163Z,213.29
2023-05-10T01:23:39.212Z,214.22
2023-05-10T01:24:39.234Z,213.92
2023-05-10T01:25:39.277Z,215.06
2023-05-10T01:26:39.294Z,214.83
2023-05-10T01:27:39.375Z,215.38
2023-05-10T01:28:39.369Z,214.59
2023-05-10T01:29:39.423Z,215.21
2023-05-10T01:30:39.467Z,214.83
2023-05-10T01:31:39.501Z,215.88
2023-05-10T01:32:39.546Z,216.85
2023-05-10T01:33:39.557Z,216.56
2023-05-10T01:34:39.589Z,216.51
2023-05-10T01:35:39.627Z,216.61
2023-05-10T01:36:39.650Z,215.81
2023-05-10T01:37:39.701Z,217.59
2023-05-10T01:38:39.691Z,217.39
2023-05-10T01:39:39.782Z,216.98
2023-05-10T01:40:39.751Z,217.23
2023-05-10T01:41:39.799Z,216.50
2023-05-10T01:42:39.859Z,217.80
2023-05-10T01:43:39.856Z,218.50
2023-05-10T01:44:39.908Z,218.82
2023-05-10T01:45:39.937Z,219.05
2023-05-10T01:46:39.995Z,219.80
2023-05-10T01:47:40.060Z,219.50
2023-05-10T01:48:40.033Z,220.74
2023-05-10T01:49:40.055Z,219.52
2023-05-10T01:50:40.135Z,220.31
2023-05-10T01:51:40.159Z,221.24
2023-05-10T01:52:40.209Z,222.04
2023-05-10T01:53:40.236Z,221.44
2023-05-10T01:54:40.252Z,221.81
2023-05-10T01:55:40.291Z,221.88
2023-05-10T01:56:40.328Z,221.93
2023-05-10T01:57:40.351Z,221.84
2023-05-10T01:58:40.371Z,224.34
2023-05-10T01:59:40.411Z,223.71
2023-05-10T02:00:40.459Z,223.61
2023-05-10T02:01:40.454Z,224.01
2023-05-10T02:02:40.509Z,224.27
2023-05-10T02:03:40.603Z,225.02
2023-05-10T02:04:40.567Z,225.85
2023-05-10T02:05:40.586Z,225.27
2023-05-10T02:06:40.613Z,225.81
2023-05-10T02:07:40.636Z,226.11
2023-05-10T02:08:40.649Z,225.38
2023-05-10T02:09:40.684Z,225.43
2023-05-10T02:10:40.699Z,226.32
2023-05-10T02:11:40.763Z,226.71
2023-05-10T02:12:40.809Z,226.49
2023-05-10T02:13:40.825Z,226.58
2023-05-10T02:14:40.843Z,228.83
2023-05-10T02:15:40.869Z,227.67
2023-05-10T02:16:40.938Z,226.23
2023-05-10T02:17:40.999Z,228.42
2023-05-10T02:18:40.952Z,229.11
2023-05-10T02:19:40.959Z,228.39
2023-05-10T02:20:41.031Z,228.62
2023-05-10T02:21:41.033Z,228.74
2023-05-10T02:22:41.051Z,229.06
2023-05-10T02:23:41.093Z,227.69
2023-05-10T02:24:41.136Z,228.69
2023-05-10T02:25:41.170Z,228.96
2023-05-10T02:26:41.226Z,228.89
2023-05-10T02:27:41.246Z,229.62
2023-05-10T02:28:41.269Z,228.65
2023-05-10T02:29:41.291Z,228.85
2023-05-10T02:30:41.319Z,228.49
2023-05-10T02:31:41.375Z,228.24
2023-05-10T02:32:41.418Z,229.12
2023-05-10T02:33:41.408Z,229.66
2023-05-10T02:34:41.429Z,229.29
2023-05-10T02:35:41.497Z,228.93
2023-05-10T02:36:41.500Z,230.06
2023-05-10T02:37:41.535Z,228.88
2023-05-10T02:38:41.548Z,227.85
2023-05-10T02:39:41.622Z,228.19
2023-05-10T02:40:41.625Z,227.37
2023-05-10T02:41:41.676Z,227.01
2023-05-10T02:42:41.671Z,226.86
2023-05-10T02:43:42.308Z,226.62
2023-05-10T02:44:41.743Z,225.95
2023-05-10T02:45:41.863Z,227.23
2023-05-10T02:46:41.759Z,225.45
2023-05-10T02:47:41.840Z,226.06
2023-05-10T02:48:41.831Z,225.72
2023-05-10T02:49:41.863Z,224.79
2023-05-10T02:50:41.913Z,224.64
2023-05-10T02:51:41.947Z,224.11
2023-05-10T02:52:42.017Z,225.66
2023-05-10T02:53:42.006Z,224.83
2023-05-10T02:54:42.039Z,224.21
2023-05-10T02:55:42.079Z,225.02
2023-05-10T02:56:42.092Z,225.51
2023-05-10T02:57:42.147Z,226.08
2023-05-10T02:58:42.160Z,224.68
2023-05-10T02:59:42.178Z,226.01
2023-05-10T03:00:42.202Z,224.70
2023-05-10T03:01:42.237Z,223.50
2023-05-10T03:02:42.293Z,223.24
2023-05-10T03:03:42.308Z,223.69
2023-05-10T03:04:42.339Z,225.15
2023-05-10T03:05:42.344Z,224.06
2023-05-10T03:06:42.365Z,224.73
2023-05-10T03:07:42.376Z,224.93
2023-05-10T03:08:42.402Z,223.79
2023-05-10T03:09:42.434Z,224.33
2023-05-10T03:10:42.446Z,222.84
2023-05-10T03:11:42.484Z,222.82
2023-05-10T03:12:42.556Z,222.81
2023-05-10T03:13:42.536Z,224.36
2023-05-10T03:14:42.540Z,223.09
2023-05-10T03:15:42.640Z,223.48
2023-05-10T03:16:44.746Z,223.61
2023-05-10T03:17:42.664Z,224.82
2023-05-10T03:18:42.662Z,223.86
2023-05-10T03:19:42.675Z,224.00
2023-05-10T03:20:42.716Z,224.30
2023-05-10T03:21:42.769Z,224.28
2023-05-10T03:22:42.784Z,223.17
2023-05-10T03:23:42.843Z,223.79
2023-05-10T03:24:42.865Z,224.85
2023-05-10T03:25:42.868Z,223.67
2023-05-10T03:26:42.909Z,223.53
2023-05-10T03:27:42.941Z,223.20
2023-05-10T03:28:42.958Z,224.77
2023-05-10T03:29:42.981Z,225.53
2023-05-10T03:30:43.000Z,225.28
2023-05-10T03:31:43.172Z,224.67
2023-05-10T03:32:43.205Z,225.31
2023-05-10T03:33:43.089Z,223.77
2023-05-10T03:34:43.119Z,224.34
2023-05-10T03:35:43.132Z,223.65
2023-05-10T03:36:43.159Z,223.95
2023-05-10T03:37:43.213Z,224.44
2023-05-10T03:38:43.216Z,226.42
2023-05-10T03:39:43.227Z,225.05
2023-05-10T03:40:43.268Z,225.47
2023-05-10T03:41:43.308Z,225.86
2023-05-10T03:42:43.325Z,226.91
2023-05-10T03:43:43.398Z,226.16
2023-05-10T03:44:43.347Z,225.67
2023-05-10T03:45:43.393Z,225.95
2023-05-10T03:46:43.458Z,224.85
2023-05-10T03:47:43.497Z,224.94
2023-05-10T03:48:43.471Z,226.35
2023-05-10T03:49:43.488Z,225.77
2023-05-10T03:50:43.484Z,225.20
2023-05-10T03:51:43.566Z,225.59
2023-05-10T03:52:43.602Z,225.60
2023-05-10T03:53:43.611Z,227.29
2023-05-10T03:54:43.630Z,225.52
2023-05-10T03:55:43.620Z,226.18
2023-05-10T03:56:43.685Z,224.89
2023-05-10T03:57:43.687Z,225.33
2023-05-10T03:58:43.749Z,224.69
2023-05-10T03:59:43.770Z,224.43
2023-05-10T04:00:43.778Z,225.24
2023-05-10T04:01:43.887Z,223.76
2023-05-10T04:02:44.635Z,224.02
2023-05-10T04:03:43.964Z,224.19
2023-05-10T04:04:43.900Z,223.10
2023-05-10T04:05:43.902Z,223.79
2023-05-10T04:06:44.010Z,222.03
2023-05-10T04:07:43.973Z,223.66
2023-05-10T04:08:44.028Z,224.19
2023-05-10T04:09:44.048Z,223.25
2023-05-10T04:10:44.061Z,223.58
2023-05-10T04:11:44.102Z,223.63
2023-05-10T04:12:44.142Z,223.06
2023-05-10T04:13:44.177Z,224.67
2023-05-10T04:14:44.170Z,223.00
2023-05-10T04:15:44.179Z,223.88
2023-05-10T04:16:44.293Z,223.14
2023-05-10T04:17:44.309Z,222.45
2023-05-10T04:18:44.286Z,221.93
2023-05-10T04:19:44.311Z,221.32
2023-05-10T04:20:44.323Z,222.25
2023-05-10T04:21:44.368Z,223.03
2023-05-10T04:22:44.407Z,220.81
2023-05-10T04:23:44.424Z,222.35
2023-05-10T04:24:44.429Z,221.84
2023-05-10T04:25:44.485Z,220.38
2023-05-10T04:26:44.536Z,221.00
2023-05-10T04:27:44.538Z,220.26
2023-05-10T04:28:44.594Z,220.53
2023-05-10T04:29:44.590Z,219.20
2023-05-10T04:30:44.681Z,219.60
2023-05-10T04:31:44.649Z,220.13
2023-05-10T04:32:44.704Z,220.10
2023-05-10T04:33:44.679Z,221.37
2023-05-10T04:34:44.724Z,220.97
2023-05-10T04:35:44.775Z,219.91
2023-05-10T04:36:44.788Z,219.97
2023-05-10T04:37:44.792Z,219.93
2023-05-10T04:38:44.830Z,219.78
2023-05-10T04:39:44.884Z,219.19
2023-05-10T04:40:44.895Z,218.92
2023-05-10T04:41:44.908Z,218.26
2023-05-10T04:42:44.984Z,217.40
2023-05-10T04:43:44.994Z,217.56
2023-05-10T04:44:45.013Z,218.60
2023-05-10T04:45:45.023Z,217.36
2023-05-10T04:46:45.090Z,217.28
2023-05-10T04:47:45.099Z,217.19
2023-05-10T04:48:45.115Z,215.81
2023-05-10T04:49:45.143Z,216.84
2023-05-10T04:50:45.170Z,216.59
2023-05-10T04:51:45.197Z,217.67
2023-05-10T04:52:45.234Z,217.80
2023-05-10T04:53:54.167Z,216.53
2023-05-10T04:54:46.240Z,216.61
2023-05-10T04:55:45.219Z,216.59
2023-05-10T04:56:45.237Z,216.61
2023-05-10T04:57:45.888Z,216.10
2023-05-10T04:58:45.188Z,215.92
2023-05-10T04:59:45.230Z,216.31
2023-05-10T05:00:52.752Z,216.16
2023-05-10T05:01:45.232Z,216.31
2023-05-10T05:02:45.343Z,216.63
2023-05-10T05:03:45.311Z,217.50
2023-05-10T05:04:45.197Z,218.11
2023-05-10T05:05:45.146Z,219.71
2023-05-10T05:06:45.181Z,219.93
2023-05-10T05:07:45.131Z,220.85
2023-05-10T05:08:45.166Z,221.72
2023-05-10T05:09:45.149Z,221.35
2023-05-10T05:10:45.132Z,221.06
2023-05-10T05:11:45.123Z,221.55
2023-05-10T05:12:45.172Z,222.13
2023-05-10T05:13:45.144Z,220.88
2023-05-10T05:14:45.092Z,220.16
2023-05-10T05:15:45.091Z,221.46
2023-05-10T05:16:45.194Z,221.05
2023-05-10T05:17:45.154Z,220.32
2023-05-10T05:18:45.106Z,219.35
2023-05-10T05:19:45.084Z,219.63
2023-05-10T05:20:45.105Z,215.07
2023-05-10T05:21:45.074Z,197.27
2023-05-10T05:22:45.073Z,179.23
2023-05-10T05:23:45.049Z,169.82
2023-05-10T05:24:45.032Z,165.99
2023-05-10T05:26:50.799Z,25.00
2023-05-10T05:27:50.768Z,25.00
2023-05-10T05:28:50.808Z,25.00
2023-05-10T05:29:50.776Z,25.00
2023-05-10T05:30:50.782Z,25.00
2023-05-10T05:31:51.046Z,46.21
2023-05-10T05:32:50.800Z,51.09
2023-05-10T05:33:50.982Z,51.20
2023-05-10T05:34:50.738Z,76.86
2023-05-10T05:35:50.732Z,71.41
2023-05-10T05:36:50.740Z,79.60
2023-05-10T05:37:50.728Z,89.86
2023-05-10T05:38:50.973Z,92.63
2023-05-10T05:39:50.716Z,106.53
2023-05-10T05:40:50.696Z,141.26
2023-05-10T05:41:50.724Z,151.22
2023-05-10T05:42:50.703Z,196.03
2023-05-10T05:43:50.964Z,210.09
2023-05-10T05:44:50.677Z,214.56
2023-05-10T05:45:57.712Z,245.47
2023-05-10T05:46:50.692Z,245.98
2023-05-10T05:47:50.721Z,248.50
2023-05-10T05:48:51.004Z,258.88
2023-05-10T05:49:50.637Z,274.91
2023-05-10T05:50:50.653Z,306.31
2023-05-10T05:51:50.655Z,247.89
2023-05-10T05:52:50.640Z,249.85
2023-05-10T05:53:50.973Z,249.19
2023-05-10T05:54:50.665Z,247.56
2023-05-10T05:55:50.598Z,244.60
2023-05-10T05:56:50.597Z,250.00
2023-05-10T05:57:50.557Z,248.07
2023-05-10T05:58:50.599Z,245.84
2023-05-10T05:59:50.599Z,240.26
2023-05-10T06:00:50.593Z,229.43
2023-05-10T06:01:50.585Z,229.89
2023-05-10T06:02:50.619Z,222.14
2023-05-10T06:03:53.168Z,224.21
2023-05-10T06:04:50.987Z,236.39
2023-05-10T06:05:50.545Z,235.95
2023-05-10T06:06:50.547Z,249.00
2023-05-10T06:07:50.558Z,251.06
2023-05-10T06:08:50.510Z,250.00
2023-05-10T06:09:50.524Z,250.28
2023-05-10T06:10:50.535Z,246.71
2023-05-10T06:11:50.545Z,252.15
2023-05-10T06:12:50.539Z,248.41
2023-05-10T06:13:50.489Z,250.00
2023-05-10T06:14:50.507Z,247.83
2023-05-10T06:15:50.484Z,254.82
2023-05-10T06:16:50.507Z,248.49
2023-05-10T06:17:50.493Z,247.42
2023-05-10T06:18:50.458Z,249.00
2023-05-10T06:19:50.491Z,249.39
2023-05-10T06:20:50.445Z,247.91
2023-05-10T06:21:53.111Z,249.01
2023-05-10T06:22:50.476Z,249.18
2023-05-10T06:23:50.485Z,249.62
2023-05-10T06:24:50.439Z,250.61
2023-05-10T06:25:50.407Z,253.84
2023-05-10T06:26:50.403Z,255.67
2023-05-10T06:27:53.787Z,248.17
2023-05-10T06:28:50.393Z,248.45
2023-05-10T06:29:52.234Z,249.27
2023-05-10T06:30:51.386Z,248.70
2023-05-10T06:31:50.450Z,249.81
2023-05-10T06:32:50.401Z,250.99
2023-05-10T06:33:50.393Z,260.74
2023-05-10T06:34:50.333Z,271.55
2023-05-10T06:35:50.311Z,249.60
2023-05-10T06:36:50.357Z,249.05
2023-05-10T06:37:50.352Z,228.82
2023-05-10T06:38:50.337Z,204.11
2023-05-10T06:39:50.383Z,181.47
2023-05-10T06:40:50.391Z,177.53
2023-05-10T06:41:50.343Z,192.65
2023-05-10T06:42:50.354Z,203.86
2023-05-10T06:43:50.484Z,201.76
2023-05-10T06:44:50.371Z,206.18
2023-05-10T06:45:50.353Z,208.32
2023-05-10T06:46:50.587Z,210.97
2023-05-10T06:47:50.462Z,216.43
2023-05-10T06:48:50.509Z,217.82
2023-05-10T06:49:51.025Z,221.00
2023-05-10T06:50:50.630Z,224.22
2023-05-10T06:51:50.714Z,228.38
2023-05-10T06:52:52.376Z,227.84
2023-05-10T06:53:50.796Z,247.03
2023-05-10T06:54:50.875Z,234.87
2023-05-10T06:55:50.853Z,231.91
2023-05-10T06:56:50.899Z,234.40
2023-05-10T06:57:50.925Z,233.42
2023-05-10T06:58:50.988Z,237.14
2023-05-10T06:59:50.950Z,236.18
2023-05-10T07:00:50.974Z,237.02
2023-05-10T07:01:51.010Z,244.82
2023-05-10T07:02:51.044Z,240.75
2023-05-10T07:03:51.103Z,244.63
2023-05-10T07:04:51.271Z,248.41
2023-05-10T07:05:51.190Z,244.99
2023-05-10T07:06:51.217Z,245.19
2023-05-10T07:07:51.215Z,243.35
2023-05-10T07:08:51.222Z,246.60
2023-05-10T07:09:51.195Z,244.06
2023-05-10T07:10:51.225Z,243.98
2023-05-10T07:11:51.327Z,245.80
2023-05-10T07:12:51.483Z,237.73
2023-05-10T07:13:51.525Z,227.79
2023-05-10T07:14:52.048Z,215.68
2023-05-10T07:15:51.637Z,201.55
2023-05-10T07:16:51.638Z,187.47
2023-05-10T07:17:51.682Z,178.85
2023-05-10T07:18:51.640Z,174.49
2023-05-10T07:19:51.697Z,165.32
2023-05-10T07:20:51.730Z,156.87
2023-05-10T07:21:51.790Z,148.71
2023-05-10T07:22:51.794Z,140.24
2023-05-10T07:23:51.860Z,137.20
2023-05-10T07:24:51.831Z,135.71
2023-05-10T07:25:51.846Z,129.25
2023-05-10T07:26:51.823Z,127.47
2023-05-10T07:27:51.872Z,124.47
2023-05-10T07:28:51.872Z,118.59
2023-05-10T07:29:51.862Z,118.95
2023-05-10T07:30:51.917Z,113.92
2023-05-10T07:31:51.955Z,111.09
2023-05-10T07:32:51.952Z,121.66
2023-05-10T07:33:51.879Z,114.50
2023-05-10T07:34:51.892Z,130.80
2023-05-10T07:35:51.925Z,138.42
2023-05-10T07:36:51.908Z,133.29
2023-05-10T07:37:51.943Z,129.99
2023-05-10T07:38:51.940Z,122.52
2023-05-10T07:39:51.932Z,119.97
2023-05-10T07:40:51.954Z,113.56
2023-05-10T07:41:52.018Z,103.62
2023-05-10T07:42:51.967Z,94.75
2023-05-10T07:43:51.979Z,90.32
2023-05-10T07:44:52.056Z,91.81
2023-05-10T07:45:54.628Z,87.31
2023-05-10T07:46:52.056Z,87.21
2023-05-10T07:47:52.126Z,87.59
2023-05-10T07:48:52.063Z,79.70
2023-05-10T07:49:52.026Z,90.92
2023-05-10T07:50:52.004Z,94.05
2023-05-10T07:51:52.037Z,94.96
2023-05-10T07:52:51.989Z,99.69
2023-05-10T07:53:52.014Z,100.05
2023-05-10T07:54:52.028Z,102.72
2023-05-10T07:55:52.029Z,103.58
2023-05-10T07:56:51.978Z,103.83
2023-05-10T07:58:21.861Z,25.00
2023-05-10T07:59:21.826Z,25.00
2023-05-10T08:00:21.885Z,25.00
2023-05-10T08:01:21.849Z,25.00
2023-05-10T08:02:21.897Z,25.00
2023-05-10T08:03:21.859Z,25.31
2023-05-10T08:04:21.810Z,28.64
2023-05-10T08:05:21.821Z,27.44
2023-05-10T08:06:21.828Z,26.75
2023-05-10T08:07:22.510Z,27.51
2023-05-10T08:08:21.800Z,29.25
2023-05-10T08:09:21.802Z,29.69
2023-05-10T08:10:21.855Z,32.96
2023-05-10T08:11:21.811Z,28.31
2023-05-10T08:12:21.749Z,29.51
2023-05-10T08:13:21.770Z,29.82
2023-05-10T08:14:21.725Z,29.91
2023-05-10T08:15:21.734Z,29.96
2023-05-10T08:16:21.756Z,31.32
2023-05-10T08:17:22.844Z,38.06
2023-05-10T08:18:22.216Z,41.97
2023-05-10T08:19:21.720Z,39.66
2023-05-10T08:20:21.821Z,40.15
2023-05-10T08:21:21.711Z,33.76
2023-05-10T08:22:21.706Z,36.31
2023-05-10T08:23:21.679Z,37.57
2023-05-10T08:24:21.655Z,40.18
2023-05-10T08:25:21.660Z,44.64
2023-05-10T08:26:21.699Z,44.67
2023-05-10T08:27:21.663Z,47.23
2023-05-10T08:28:21.625Z,45.83
2023-05-10T08:29:21.628Z,50.87
2023-05-10T08:30:22.065Z,53.01
2023-05-10T08:31:21.671Z,51.28
2023-05-10T08:32:21.598Z,48.70
2023-05-10T08:33:21.616Z,45.61
2023-05-10T08:34:21.733Z,42.50
2023-05-10T08:35:22.060Z,46.16
2023-05-10T08:36:21.603Z,41.76
2023-05-10T08:37:21.550Z,39.20
2023-05-10T08:38:21.604Z,39.29
2023-05-10T08:39:29.900Z,42.79
2023-05-10T08:40:22.550Z,43.12
2023-05-10T08:41:21.546Z,44.13
2023-05-10T08:42:21.560Z,43.99
2023-05-10T08:43:21.524Z,45.00
2023-05-10T08:44:21.558Z,40.44
2023-05-10T08:45:21.499Z,42.62
2023-05-10T08:46:21.595Z,36.46
2023-05-10T08:47:21.492Z,43.28
2023-05-10T08:48:21.500Z,39.30
2023-05-10T08:49:21.514Z,40.69
2023-05-10T08:50:21.578Z,34.99
2023-05-10T08:51:21.466Z,31.02
2023-05-10T08:52:21.485Z,31.74
2023-05-10T08:53:21.524Z,33.96
2023-05-10T08:54:21.636Z,30.69
2023-05-10T08:55:21.587Z,32.69
2023-05-10T08:56:21.677Z,30.58
2023-05-10T08:57:21.707Z,34.25
2023-05-10T08:58:21.681Z,31.41
2023-05-10T08:59:21.689Z,28.52
2023-05-10T09:00:21.742Z,29.58
2023-05-10T09:01:21.809Z,26.17
2023-05-10T09:02:21.864Z,26.14
2023-05-10T09:03:21.967Z,26.38
2023-05-10T09:04:22.107Z,27.76
2023-05-10T09:05:22.179Z,27.37
2023-05-10T09:06:21.941Z,27.95
2023-05-10T09:07:22.085Z,26.70
2023-05-10T09:08:22.006Z,27.57
2023-05-10T09:09:22.070Z,29.24
2023-05-10T09:10:22.076Z,30.37
2023-05-10T09:11:22.089Z,31.08
2023-05-10T09:12:22.132Z,28.53
2023-05-10T09:13:22.254Z,26.86
2023-05-10T09:14:24.147Z,29.13
2023-05-10T09:15:22.261Z,28.76
2023-05-10T09:16:22.722Z,26.03
2023-05-10T09:17:22.501Z,30.26
2023-05-10T09:18:22.445Z,25.93
2023-05-10T09:19:22.392Z,25.48
2023-05-10T09:20:22.399Z,26.21
2023-05-10T09:21:22.479Z,25.00
2023-05-10T09:22:22.466Z,34.25
2023-05-10T09:23:22.544Z,29.45
2023-05-10T09:24:22.552Z,26.77
2023-05-10T09:25:22.635Z,28.41
2023-05-10T09:26:22.668Z,25.26
2023-05-10T09:27:22.685Z,25.00
2023-05-10T09:28:22.776Z,31.03
2023-05-10T09:29:22.787Z,27.01
2023-05-10T09:30:22.796Z,29.53
2023-05-10T09:31:23.368Z,35.85
2023-05-10T09:32:22.880Z,30.54
2023-05-10T09:33:22.946Z,30.47
2023-05-10T09:34:22.957Z,35.64
2023-05-10T09:35:22.999Z,0.00
2023-05-10T09:36:23.061Z,34.55
2023-05-10T09:37:23.116Z,23.03
2023-05-10T09:38:23.158Z,23.42
2023-05-10T09:39:23.187Z,26.01
2023-05-10T09:40:23.181Z,28.41
2023-05-10T09:41:23.566Z,39.12
2023-05-10T09:42:23.272Z,30.33
2023-05-10T09:43:23.238Z,46.73
2023-05-10T09:44:23.204Z,51.64
2023-05-10T09:45:23.193Z,78.20
2023-05-10T09:46:23.265Z,123.39
2023-05-10T09:47:23.318Z,154.21
2023-05-10T09:48:23.405Z,179.57
2023-05-10T09:49:23.396Z,211.43
2023-05-10T09:50:23.459Z,240.21
2023-05-10T09:51:23.577Z,253.18
2023-05-10T09:52:23.461Z,250.00
2023-05-10T09:53:23.530Z,255.15
2023-05-10T09:54:23.491Z,263.22
2023-05-10T09:55:23.478Z,250.00
2023-05-10T09:56:23.556Z,250.00
2023-05-10T09:57:23.528Z,250.65
2023-05-10T09:58:23.532Z,250.00
2023-05-10T09:59:24.093Z,249.61
2023-05-10T10:00:23.603Z,248.12
2023-05-10T10:01:23.661Z,250.00
2023-05-10T10:02:23.655Z,251.95
2023-05-10T10:03:23.728Z,248.22
2023-05-10T10:04:23.805Z,250.02
2023-05-10T10:05:23.837Z,250.05
2023-05-10T10:06:30.247Z,245.83
2023-05-10T10:07:24.915Z,246.10
2023-05-10T10:08:23.885Z,247.41
2023-05-10T10:09:23.906Z,249.66
2023-05-10T10:10:23.873Z,253.80
2023-05-10T10:11:24.067Z,263.69
2023-05-10T10:12:23.837Z,256.32
2023-05-10T10:13:23.834Z,249.18
2023-05-10T10:14:23.820Z,250.00
2023-05-10T10:15:23.854Z,249.31
2023-05-10T10:16:24.165Z,251.29
2023-05-10T10:17:23.875Z,248.38
2023-05-10T10:18:23.794Z,249.00
2023-05-10T10:19:23.842Z,250.00
2023-05-10T10:20:23.854Z,250.60
2023-05-10T10:21:23.897Z,250.00
2023-05-10T10:22:23.913Z,250.00
2023-05-10T10:23:23.970Z,245.71
2023-05-10T10:24:23.955Z,247.21
2023-05-10T10:25:23.990Z,250.00
2023-05-10T10:26:24.061Z,250.00
2023-05-10T10:27:24.053Z,244.32
2023-05-10T10:28:25.400Z,243.86
2023-05-10T10:29:24.065Z,245.99
2023-05-10T10:30:24.061Z,247.17
2023-05-10T10:31:24.135Z,240.77
2023-05-10T10:32:24.103Z,218.45
2023-05-10T10:33:28.472Z,215.64
2023-05-10T10:34:25.016Z,213.40
2023-05-10T10:35:24.083Z,198.35
2023-05-10T10:36:24.098Z,164.38
2023-05-10T10:37:24.063Z,133.99
2023-05-10T10:38:24.006Z,103.16
2023-05-10T10:39:23.998Z,84.18
2023-05-10T10:40:23.946Z,68.77
2023-05-10T10:41:24.103Z,51.15
2023-05-10T10:42:23.998Z,42.24
2023-05-10T10:43:23.982Z,37.85
2023-05-10T10:44:23.968Z,39.09
2023-05-10T10:45:23.941Z,39.90
2023-05-10T10:46:24.178Z,32.77
2023-05-10T10:47:24.154Z,29.37
2023-05-10T10:48:23.960Z,24.51
2023-05-10T10:49:24.062Z,23.65
2023-05-10T10:50:23.963Z,25.91
2023-05-10T10:51:23.954Z,25.30
2023-05-10T10:52:23.950Z,25.00
2023-05-10T10:53:23.930Z,25.35
2023-05-10T10:54:23.949Z,25.18
2023-05-10T10:55:23.975Z,24.74
2023-05-10T10:56:23.958Z,25.49
2023-05-10T10:57:24.131Z,26.02
2023-05-10T10:58:24.017Z,25.00
2023-05-10T10:59:24.058Z,27.44
2023-05-10T11:00:24.095Z,29.35
2023-05-10T11:01:24.113Z,26.93
2023-05-10T11:02:24.160Z,29.07
2023-05-10T11:03:24.116Z,29.81
2023-05-10T11:04:24.217Z,29.47
2023-05-10T11:05:24.190Z,27.75
2023-05-10T11:06:24.195Z,25.29
2023-05-10T11:07:24.606Z,28.80
2023-05-10T11:08:24.276Z,25.96
2023-05-10T11:09:24.290Z,24.95
2023-05-10T11:10:24.287Z,25.01
2023-05-10T11:11:24.296Z,25.83
2023-05-10T11:12:24.333Z,25.21
2023-05-10T11:13:24.376Z,27.50
2023-05-10T11:14:24.390Z,25.08
2023-05-10T11:15:24.474Z,25.33
2023-05-10T11:16:24.887Z,24.96
2023-05-10T11:17:24.586Z,25.71
2023-05-10T11:18:24.718Z,25.58
2023-05-10T11:19:24.547Z,25.54
2023-05-10T11:20:24.580Z,28.19
2023-05-10T11:21:24.583Z,25.91
2023-05-10T11:22:24.622Z,28.24
2023-05-10T11:23:24.743Z,24.45
2023-05-10T11:24:24.726Z,25.80
2023-05-10T11:25:24.740Z,27.76
2023-05-10T11:26:24.849Z,25.00
2023-05-10T11:27:25.115Z,34.89
2023-05-10T11:28:24.916Z,40.70
2023-05-10T11:29:25.281Z,51.94
2023-05-10T11:30:25.164Z,60.30
2023-05-10T11:31:25.187Z,64.35
2023-05-10T11:32:25.184Z,66.35
2023-05-10T11:33:25.131Z,66.12
2023-05-10T11:34:25.151Z,67.37
2023-05-10T11:35:25.189Z,65.21
2023-05-10T11:36:25.203Z,69.19
2023-05-10T11:37:25.611Z,67.31
2023-05-10T11:38:25.247Z,63.48
2023-05-10T11:39:25.209Z,63.61
2023-05-10T11:40:25.242Z,65.60
2023-05-10T11:41:25.274Z,66.62
2023-05-10T11:42:25.621Z,64.64
2023-05-10T11:43:25.311Z,66.21
2023-05-10T11:44:25.314Z,72.06
2023-05-10T11:45:25.381Z,70.76
2023-05-10T11:46:25.449Z,77.18
2023-05-10T11:47:25.433Z,81.09
2023-05-10T11:48:25.392Z,78.73
2023-05-10T11:49:25.383Z,85.11
2023-05-10T11:50:25.401Z,83.15
2023-05-10T11:51:25.410Z,78.59
2023-05-10T11:52:25.411Z,83.88
2023-05-10T11:53:25.918Z,83.99
2023-05-10T11:54:25.445Z,81.46
2023-05-10T11:55:25.406Z,84.73
2023-05-10T11:56:25.430Z,89.61
2023-05-10T11:57:25.457Z,89.02
2023-05-10T11:58:25.449Z,87.79
2023-05-10T11:59:25.473Z,87.39
2023-05-10T12:00:25.542Z,82.48
2023-05-10T12:01:25.499Z,77.27
2023-05-10T12:02:25.612Z,73.65
2023-05-10T12:03:25.627Z,75.33
2023-05-10T12:04:25.539Z,65.63
2023-05-10T12:05:25.571Z,66.33
2023-05-10T12:06:25.555Z,69.60
2023-05-10T12:07:25.621Z,67.14
2023-05-10T12:08:25.623Z,58.26
2023-05-10T12:09:39.564Z,58.62
2023-05-10T12:10:26.579Z,58.80
2023-05-10T12:11:25.596Z,59.76
2023-05-10T12:12:25.610Z,62.99
2023-05-10T12:13:25.583Z,66.55
2023-05-10T12:14:25.586Z,71.39
2023-05-10T12:15:25.589Z,71.56
2023-05-10T12:16:25.594Z,72.77
2023-05-10T12:17:25.595Z,85.30
2023-05-10T12:18:25.564Z,75.54
2023-05-10T12:19:25.568Z,73.13
2023-05-10T12:20:25.518Z,78.79
2023-05-10T12:21:25.552Z,83.08
2023-05-10T12:22:25.537Z,88.70
2023-05-10T12:23:25.525Z,97.60
2023-05-10T12:24:25.528Z,103.16
2023-05-10T12:25:25.492Z,106.38
2023-05-10T12:26:25.551Z,109.79
2023-05-10T12:27:25.489Z,113.50
2023-05-10T12:28:25.476Z,115.83
2023-05-10T12:29:25.481Z,120.26
2023-05-10T12:30:25.480Z,127.70
2023-05-10T12:31:25.479Z,130.38
2023-05-10T12:32:25.499Z,132.24
2023-05-10T12:33:25.496Z,132.82
2023-05-10T12:34:25.540Z,132.24
2023-05-10T12:35:25.557Z,131.50
2023-05-10T12:36:25.621Z,128.45
2023-05-10T12:37:25.693Z,131.26